sensor_id;sensor_type;location;lat;lon;timestamp;P1;durP1;ratioP1;P2;durP2;ratioP2
14165;SDS011;7162;52.422;13.754;2023-03-31T00:02:14;4.17;;;1.10;;
14165;SDS011;7162;52.422;13.754;2023-03-31T00:04:47;3.93;;;1.40;;
14165;SDS011;7162;52.422;13.754;2023-03-31T00:07:17;1.63;;;1.50;;
14165;SDS011;7162;52.422;13.754;2023-03-31T00:09:46;3.00;;;1.30;;
14165;SDS011;7162;52.422;13.754;2023-03-31T00:12:13;3.93;;;1.17;;
14165;SDS011;7162;52.422;13.754;2023-03-31T00:14:41;18.97;;;1.50;;
14165;SDS011;7162;52.422;13.754;2023-03-31T00:17:08;1.20;;;1.10;;
14165;SDS011;7162;52.422;13.754;2023-03-31T00:19:36;2.23;;;1.40;;
14165;SDS011;7162;52.422;13.754;2023-03-31T00:22:05;1.30;;;1.03;;
14165;SDS011;7162;52.422;13.754;2023-03-31T00:24:33;2.57;;;1.27;;
14165;SDS011;7162;52.422;13.754;2023-03-31T00:27:01;1.30;;;1.10;;
14165;SDS011;7162;52.422;13.754;2023-03-31T00:29:29;2.30;;;1.43;;
14165;SDS011;7162;52.422;13.754;2023-03-31T00:31:57;5.13;;;1.60;;
14165;SDS011;7162;52.422;13.754;2023-03-31T00:34:25;1.93;;;1.17;;
14165;SDS011;7162;52.422;13.754;2023-03-31T00:36:54;2.23;;;1.27;;
14165;SDS011;7162;52.422;13.754;2023-03-31T00:39:28;0.93;;;0.90;;
14165;SDS011;7162;52.422;13.754;2023-03-31T00:41:57;1.63;;;1.00;;
14165;SDS011;7162;52.422;13.754;2023-03-31T00:44:27;2.50;;;1.20;;
14165;SDS011;7162;52.422;13.754;2023-03-31T00:46:55;3.23;;;1.20;;
14165;SDS011;7162;52.422;13.754;2023-03-31T00:49:27;2.60;;;1.07;;
14165;SDS011;7162;52.422;13.754;2023-03-31T00:51:56;1.80;;;1.23;;
14165;SDS011;7162;52.422;13.754;2023-03-31T00:54:27;1.30;;;1.07;;
14165;SDS011;7162;52.422;13.754;2023-03-31T00:56:56;2.40;;;1.10;;
14165;SDS011;7162;52.422;13.754;2023-03-31T00:59:27;4.40;;;1.13;;
14165;SDS011;7162;52.422;13.754;2023-03-31T01:01:56;6.90;;;1.10;;
14165;SDS011;7162;52.422;13.754;2023-03-31T01:04:26;1.50;;;0.97;;
14165;SDS011;7162;52.422;13.754;2023-03-31T01:06:55;5.43;;;1.13;;
14165;SDS011;7162;52.422;13.754;2023-03-31T01:09:28;3.63;;;1.00;;
14165;SDS011;7162;52.422;13.754;2023-03-31T01:11:59;4.03;;;1.30;;
14165;SDS011;7162;52.422;13.754;2023-03-31T01:14:26;3.97;;;1.27;;
14165;SDS011;7162;52.422;13.754;2023-03-31T01:16:53;4.70;;;1.47;;
14165;SDS011;7162;52.422;13.754;2023-03-31T01:19:22;2.70;;;1.00;;
14165;SDS011;7162;52.422;13.754;2023-03-31T01:24:44;2.20;;;1.20;;
14165;SDS011;7162;52.422;13.754;2023-03-31T01:30:15;3.13;;;0.90;;
14165;SDS011;7162;52.422;13.754;2023-03-31T01:32:54;4.80;;;1.10;;
14165;SDS011;7162;52.422;13.754;2023-03-31T01:35:33;2.17;;;1.07;;
14165;SDS011;7162;52.422;13.754;2023-03-31T01:38:10;0.90;;;0.80;;
14165;SDS011;7162;52.422;13.754;2023-03-31T01:40:49;2.20;;;1.10;;
14165;SDS011;7162;52.422;13.754;2023-03-31T01:43:19;2.13;;;0.73;;
14165;SDS011;7162;52.422;13.754;2023-03-31T01:45:50;1.67;;;0.90;;
14165;SDS011;7162;52.422;13.754;2023-03-31T01:48:20;1.63;;;1.00;;
14165;SDS011;7162;52.422;13.754;2023-03-31T01:50:49;6.30;;;0.90;;
14165;SDS011;7162;52.422;13.754;2023-03-31T01:53:20;3.10;;;1.00;;
14165;SDS011;7162;52.422;13.754;2023-03-31T01:55:55;1.57;;;0.80;;
14165;SDS011;7162;52.422;13.754;2023-03-31T01:58:27;1.77;;;1.00;;
14165;SDS011;7162;52.422;13.754;2023-03-31T02:00:57;6.23;;;1.20;;
14165;SDS011;7162;52.422;13.754;2023-03-31T02:03:27;0.90;;;0.80;;
14165;SDS011;7162;52.422;13.754;2023-03-31T02:05:57;1.20;;;1.10;;
14165;SDS011;7162;52.422;13.754;2023-03-31T02:08:27;2.10;;;1.07;;
14165;SDS011;7162;52.422;13.754;2023-03-31T02:10:57;2.20;;;1.00;;
14165;SDS011;7162;52.422;13.754;2023-03-31T02:13:24;1.73;;;0.80;;
14165;SDS011;7162;52.422;13.754;2023-03-31T02:15:53;1.87;;;0.73;;
14165;SDS011;7162;52.422;13.754;2023-03-31T02:18:23;1.90;;;0.83;;
14165;SDS011;7162;52.422;13.754;2023-03-31T02:20:51;2.80;;;0.80;;
14165;SDS011;7162;52.422;13.754;2023-03-31T02:23:22;0.97;;;0.80;;
14165;SDS011;7162;52.422;13.754;2023-03-31T02:25:50;4.10;;;0.80;;
14165;SDS011;7162;52.422;13.754;2023-03-31T02:28:21;0.80;;;0.70;;
14165;SDS011;7162;52.422;13.754;2023-03-31T02:30:50;1.57;;;0.87;;
14165;SDS011;7162;52.422;13.754;2023-03-31T02:33:19;5.70;;;1.20;;
14165;SDS011;7162;52.422;13.754;2023-03-31T02:35:46;1.63;;;0.90;;
14165;SDS011;7162;52.422;13.754;2023-03-31T02:38:13;0.90;;;0.80;;
14165;SDS011;7162;52.422;13.754;2023-03-31T02:40:40;6.73;;;0.93;;
14165;SDS011;7162;52.422;13.754;2023-03-31T02:43:07;3.27;;;0.93;;
14165;SDS011;7162;52.422;13.754;2023-03-31T02:45:37;1.27;;;0.73;;
14165;SDS011;7162;52.422;13.754;2023-03-31T02:48:05;1.00;;;0.90;;
14165;SDS011;7162;52.422;13.754;2023-03-31T02:50:33;1.07;;;0.70;;
14165;SDS011;7162;52.422;13.754;2023-03-31T02:53:04;1.30;;;0.90;;
14165;SDS011;7162;52.422;13.754;2023-03-31T02:55:45;2.80;;;0.70;;
14165;SDS011;7162;52.422;13.754;2023-03-31T02:58:18;1.53;;;0.80;;
14165;SDS011;7162;52.422;13.754;2023-03-31T03:00:54;1.90;;;0.80;;
14165;SDS011;7162;52.422;13.754;2023-03-31T03:03:27;3.20;;;0.93;;
14165;SDS011;7162;52.422;13.754;2023-03-31T03:05:57;1.63;;;1.00;;
14165;SDS011;7162;52.422;13.754;2023-03-31T03:08:32;5.03;;;0.87;;
14165;SDS011;7162;52.422;13.754;2023-03-31T03:11:04;1.63;;;0.77;;
14165;SDS011;7162;52.422;13.754;2023-03-31T03:13:35;1.47;;;0.90;;
14165;SDS011;7162;52.422;13.754;2023-03-31T03:16:08;3.20;;;1.07;;
14165;SDS011;7162;52.422;13.754;2023-03-31T03:18:37;1.33;;;0.70;;
14165;SDS011;7162;52.422;13.754;2023-03-31T03:21:05;2.63;;;0.87;;
14165;SDS011;7162;52.422;13.754;2023-03-31T03:23:32;4.13;;;1.00;;
14165;SDS011;7162;52.422;13.754;2023-03-31T03:25:59;1.90;;;0.80;;
14165;SDS011;7162;52.422;13.754;2023-03-31T03:28:25;3.10;;;1.20;;
14165;SDS011;7162;52.422;13.754;2023-03-31T03:30:52;1.50;;;1.00;;
14165;SDS011;7162;52.422;13.754;2023-03-31T03:33:22;2.73;;;0.90;;
14165;SDS011;7162;52.422;13.754;2023-03-31T03:35:49;2.07;;;0.80;;
14165;SDS011;7162;52.422;13.754;2023-03-31T03:38:16;1.53;;;0.70;;
14165;SDS011;7162;52.422;13.754;2023-03-31T03:40:43;2.13;;;1.00;;
14165;SDS011;7162;52.422;13.754;2023-03-31T03:43:10;1.60;;;1.00;;
14165;SDS011;7162;52.422;13.754;2023-03-31T03:45:37;4.93;;;0.90;;
14165;SDS011;7162;52.422;13.754;2023-03-31T03:48:04;2.87;;;0.80;;
14165;SDS011;7162;52.422;13.754;2023-03-31T03:50:35;2.30;;;1.00;;
14165;SDS011;7162;52.422;13.754;2023-03-31T03:53:02;0.80;;;0.80;;
14165;SDS011;7162;52.422;13.754;2023-03-31T03:55:29;2.70;;;1.13;;
14165;SDS011;7162;52.422;13.754;2023-03-31T03:57:56;3.20;;;1.17;;
14165;SDS011;7162;52.422;13.754;2023-03-31T04:00:23;1.20;;;1.10;;
14165;SDS011;7162;52.422;13.754;2023-03-31T04:02:50;2.50;;;1.10;;
14165;SDS011;7162;52.422;13.754;2023-03-31T04:05:17;2.57;;;1.10;;
14165;SDS011;7162;52.422;13.754;2023-03-31T04:07:46;2.40;;;1.00;;
14165;SDS011;7162;52.422;13.754;2023-03-31T04:10:13;6.27;;;1.40;;
14165;SDS011;7162;52.422;13.754;2023-03-31T04:12:40;1.40;;;0.87;;
14165;SDS011;7162;52.422;13.754;2023-03-31T04:15:07;2.80;;;0.77;;
14165;SDS011;7162;52.422;13.754;2023-03-31T04:17:34;19.03;;;8.50;;
14165;SDS011;7162;52.422;13.754;2023-03-31T04:20:02;12.73;;;5.23;;
14165;SDS011;7162;52.422;13.754;2023-03-31T04:22:33;4.03;;;2.37;;
14165;SDS011;7162;52.422;13.754;2023-03-31T04:25:06;1.77;;;1.67;;
14165;SDS011;7162;52.422;13.754;2023-03-31T04:27:38;1.20;;;1.10;;
14165;SDS011;7162;52.422;13.754;2023-03-31T04:30:11;2.13;;;1.00;;
14165;SDS011;7162;52.422;13.754;2023-03-31T04:32:46;2.07;;;1.50;;
14165;SDS011;7162;52.422;13.754;2023-03-31T04:35:14;1.17;;;1.03;;
14165;SDS011;7162;52.422;13.754;2023-03-31T04:37:41;1.77;;;0.90;;
14165;SDS011;7162;52.422;13.754;2023-03-31T04:40:10;2.70;;;1.10;;
14165;SDS011;7162;52.422;13.754;2023-03-31T04:42:37;1.80;;;0.90;;
14165;SDS011;7162;52.422;13.754;2023-03-31T04:45:04;9.40;;;1.30;;
14165;SDS011;7162;52.422;13.754;2023-03-31T04:47:32;2.73;;;1.17;;
14165;SDS011;7162;52.422;13.754;2023-03-31T04:49:58;1.80;;;0.93;;
14165;SDS011;7162;52.422;13.754;2023-03-31T04:52:25;1.90;;;1.00;;
14165;SDS011;7162;52.422;13.754;2023-03-31T04:54:52;2.20;;;1.03;;
14165;SDS011;7162;52.422;13.754;2023-03-31T04:57:21;3.83;;;1.07;;
14165;SDS011;7162;52.422;13.754;2023-03-31T04:59:48;1.90;;;1.00;;
14165;SDS011;7162;52.422;13.754;2023-03-31T05:02:15;5.07;;;1.53;;
14165;SDS011;7162;52.422;13.754;2023-03-31T05:04:47;7.63;;;1.20;;
14165;SDS011;7162;52.422;13.754;2023-03-31T05:07:14;0.77;;;0.77;;
14165;SDS011;7162;52.422;13.754;2023-03-31T05:09:42;3.40;;;1.00;;
14165;SDS011;7162;52.422;13.754;2023-03-31T05:12:09;1.20;;;0.90;;
14165;SDS011;7162;52.422;13.754;2023-03-31T05:14:37;1.77;;;0.93;;
14165;SDS011;7162;52.422;13.754;2023-03-31T05:17:04;4.53;;;0.90;;
14165;SDS011;7162;52.422;13.754;2023-03-31T05:19:31;5.80;;;1.40;;
14165;SDS011;7162;52.422;13.754;2023-03-31T05:21:58;4.50;;;1.00;;
14165;SDS011;7162;52.422;13.754;2023-03-31T05:24:25;4.07;;;1.20;;
14165;SDS011;7162;52.422;13.754;2023-03-31T05:26:53;3.67;;;1.17;;
14165;SDS011;7162;52.422;13.754;2023-03-31T05:29:21;1.80;;;1.20;;
14165;SDS011;7162;52.422;13.754;2023-03-31T05:31:53;1.43;;;0.97;;
14165;SDS011;7162;52.422;13.754;2023-03-31T05:34:24;1.30;;;1.00;;
14165;SDS011;7162;52.422;13.754;2023-03-31T05:36:51;1.10;;;1.00;;
14165;SDS011;7162;52.422;13.754;2023-03-31T05:39:18;8.57;;;1.03;;
14165;SDS011;7162;52.422;13.754;2023-03-31T05:41:45;1.90;;;1.00;;
14165;SDS011;7162;52.422;13.754;2023-03-31T05:44:14;4.13;;;1.17;;
14165;SDS011;7162;52.422;13.754;2023-03-31T05:46:45;3.00;;;1.00;;
14165;SDS011;7162;52.422;13.754;2023-03-31T05:49:14;3.33;;;1.60;;
14165;SDS011;7162;52.422;13.754;2023-03-31T05:51:41;5.10;;;1.27;;
14165;SDS011;7162;52.422;13.754;2023-03-31T05:54:08;3.10;;;1.20;;
14165;SDS011;7162;52.422;13.754;2023-03-31T05:56:35;0.93;;;0.77;;
14165;SDS011;7162;52.422;13.754;2023-03-31T05:59:05;2.40;;;0.97;;
14165;SDS011;7162;52.422;13.754;2023-03-31T06:01:32;4.80;;;0.90;;
14165;SDS011;7162;52.422;13.754;2023-03-31T06:03:59;10.30;;;1.13;;
14165;SDS011;7162;52.422;13.754;2023-03-31T06:06:27;5.33;;;1.50;;
14165;SDS011;7162;52.422;13.754;2023-03-31T06:08:54;4.00;;;1.50;;
14165;SDS011;7162;52.422;13.754;2023-03-31T06:11:21;3.90;;;0.90;;
14165;SDS011;7162;52.422;13.754;2023-03-31T06:13:48;2.10;;;1.13;;
14165;SDS011;7162;52.422;13.754;2023-03-31T06:16:16;7.90;;;0.97;;
14165;SDS011;7162;52.422;13.754;2023-03-31T06:18:43;4.83;;;1.30;;
14165;SDS011;7162;52.422;13.754;2023-03-31T06:21:11;4.73;;;1.30;;
14165;SDS011;7162;52.422;13.754;2023-03-31T06:23:39;1.90;;;1.40;;
14165;SDS011;7162;52.422;13.754;2023-03-31T06:26:10;5.40;;;1.30;;
14165;SDS011;7162;52.422;13.754;2023-03-31T06:28:37;2.17;;;1.00;;
14165;SDS011;7162;52.422;13.754;2023-03-31T06:31:05;3.90;;;1.20;;
14165;SDS011;7162;52.422;13.754;2023-03-31T06:33:32;6.30;;;1.10;;
14165;SDS011;7162;52.422;13.754;2023-03-31T06:35:59;10.50;;;1.20;;
14165;SDS011;7162;52.422;13.754;2023-03-31T06:38:29;5.43;;;1.20;;
14165;SDS011;7162;52.422;13.754;2023-03-31T06:40:57;5.23;;;1.30;;
14165;SDS011;7162;52.422;13.754;2023-03-31T06:43:24;1.37;;;1.00;;
14165;SDS011;7162;52.422;13.754;2023-03-31T06:45:51;7.03;;;1.43;;
14165;SDS011;7162;52.422;13.754;2023-03-31T06:48:18;3.50;;;1.20;;
14165;SDS011;7162;52.422;13.754;2023-03-31T06:50:45;5.07;;;1.20;;
14165;SDS011;7162;52.422;13.754;2023-03-31T06:53:12;2.77;;;1.40;;
14165;SDS011;7162;52.422;13.754;2023-03-31T06:55:41;4.37;;;1.30;;
14165;SDS011;7162;52.422;13.754;2023-03-31T06:58:10;2.90;;;1.27;;
14165;SDS011;7162;52.422;13.754;2023-03-31T07:00:37;1.90;;;1.00;;
14165;SDS011;7162;52.422;13.754;2023-03-31T07:03:05;3.37;;;1.00;;
14165;SDS011;7162;52.422;13.754;2023-03-31T07:05:32;4.10;;;1.20;;
14165;SDS011;7162;52.422;13.754;2023-03-31T07:08:00;3.20;;;1.50;;
14165;SDS011;7162;52.422;13.754;2023-03-31T07:10:27;1.37;;;1.20;;
14165;SDS011;7162;52.422;13.754;2023-03-31T07:12:55;9.57;;;1.47;;
14165;SDS011;7162;52.422;13.754;2023-03-31T07:15:24;3.00;;;1.10;;
14165;SDS011;7162;52.422;13.754;2023-03-31T07:17:54;3.13;;;1.23;;
14165;SDS011;7162;52.422;13.754;2023-03-31T07:20:26;3.50;;;1.20;;
14165;SDS011;7162;52.422;13.754;2023-03-31T07:22:53;6.80;;;2.27;;
14165;SDS011;7162;52.422;13.754;2023-03-31T07:25:20;10.60;;;1.27;;
14165;SDS011;7162;52.422;13.754;2023-03-31T07:27:47;3.87;;;1.10;;
14165;SDS011;7162;52.422;13.754;2023-03-31T07:30:15;8.03;;;1.60;;
14165;SDS011;7162;52.422;13.754;2023-03-31T07:32:44;3.00;;;1.17;;
14165;SDS011;7162;52.422;13.754;2023-03-31T07:35:12;2.00;;;1.13;;
14165;SDS011;7162;52.422;13.754;2023-03-31T07:37:39;4.23;;;1.00;;
14165;SDS011;7162;52.422;13.754;2023-03-31T07:40:07;3.47;;;1.27;;
14165;SDS011;7162;52.422;13.754;2023-03-31T07:42:35;4.20;;;1.00;;
14165;SDS011;7162;52.422;13.754;2023-03-31T07:45:02;2.97;;;0.90;;
14165;SDS011;7162;52.422;13.754;2023-03-31T07:47:30;1.67;;;1.30;;
14165;SDS011;7162;52.422;13.754;2023-03-31T07:49:58;6.57;;;1.37;;
14165;SDS011;7162;52.422;13.754;2023-03-31T07:52:25;14.23;;;3.53;;
14165;SDS011;7162;52.422;13.754;2023-03-31T07:54:52;11.10;;;2.03;;
14165;SDS011;7162;52.422;13.754;2023-03-31T07:57:20;1.30;;;1.20;;
14165;SDS011;7162;52.422;13.754;2023-03-31T07:59:47;1.20;;;1.07;;
14165;SDS011;7162;52.422;13.754;2023-03-31T08:02:15;3.60;;;1.70;;
14165;SDS011;7162;52.422;13.754;2023-03-31T08:04:42;4.40;;;1.00;;
14165;SDS011;7162;52.422;13.754;2023-03-31T08:07:11;3.17;;;1.43;;
14165;SDS011;7162;52.422;13.754;2023-03-31T08:09:39;2.90;;;1.10;;
14165;SDS011;7162;52.422;13.754;2023-03-31T08:12:06;4.60;;;1.10;;
14165;SDS011;7162;52.422;13.754;2023-03-31T08:14:33;4.60;;;0.73;;
14165;SDS011;7162;52.422;13.754;2023-03-31T08:17:00;7.43;;;1.87;;
14165;SDS011;7162;52.422;13.754;2023-03-31T08:19:28;3.60;;;1.23;;
14165;SDS011;7162;52.422;13.754;2023-03-31T08:21:55;1.10;;;0.83;;
14165;SDS011;7162;52.422;13.754;2023-03-31T08:24:23;3.63;;;1.10;;
14165;SDS011;7162;52.422;13.754;2023-03-31T08:26:50;14.43;;;4.27;;
14165;SDS011;7162;52.422;13.754;2023-03-31T08:29:17;81.97;;;33.50;;
14165;SDS011;7162;52.422;13.754;2023-03-31T08:31:44;84.47;;;37.63;;
14165;SDS011;7162;52.422;13.754;2023-03-31T08:34:11;70.07;;;31.40;;
14165;SDS011;7162;52.422;13.754;2023-03-31T08:36:38;6.37;;;1.83;;
14165;SDS011;7162;52.422;13.754;2023-03-31T08:39:05;2.63;;;1.17;;
14165;SDS011;7162;52.422;13.754;2023-03-31T08:41:38;2.37;;;0.90;;
14165;SDS011;7162;52.422;13.754;2023-03-31T08:44:09;8.20;;;1.27;;
14165;SDS011;7162;52.422;13.754;2023-03-31T08:46:37;4.07;;;1.10;;
14165;SDS011;7162;52.422;13.754;2023-03-31T08:49:05;2.80;;;1.30;;
14165;SDS011;7162;52.422;13.754;2023-03-31T08:51:37;2.10;;;1.23;;
14165;SDS011;7162;52.422;13.754;2023-03-31T08:54:10;5.10;;;1.23;;
14165;SDS011;7162;52.422;13.754;2023-03-31T08:56:41;3.17;;;1.00;;
14165;SDS011;7162;52.422;13.754;2023-03-31T08:59:15;5.23;;;1.13;;
14165;SDS011;7162;52.422;13.754;2023-03-31T09:02:01;2.50;;;1.20;;
14165;SDS011;7162;52.422;13.754;2023-03-31T09:04:41;2.23;;;1.10;;
14165;SDS011;7162;52.422;13.754;2023-03-31T09:07:24;1.00;;;0.90;;
14165;SDS011;7162;52.422;13.754;2023-03-31T09:09:58;3.27;;;0.97;;
14165;SDS011;7162;52.422;13.754;2023-03-31T09:12:32;5.30;;;1.00;;
14165;SDS011;7162;52.422;13.754;2023-03-31T09:15:01;2.90;;;1.10;;
14165;SDS011;7162;52.422;13.754;2023-03-31T09:17:32;4.33;;;1.20;;
14165;SDS011;7162;52.422;13.754;2023-03-31T09:20:00;4.07;;;1.17;;
14165;SDS011;7162;52.422;13.754;2023-03-31T09:22:36;1.53;;;1.00;;
14165;SDS011;7162;52.422;13.754;2023-03-31T09:25:06;3.37;;;1.37;;
14165;SDS011;7162;52.422;13.754;2023-03-31T09:27:44;5.37;;;1.30;;
14165;SDS011;7162;52.422;13.754;2023-03-31T09:30:13;3.43;;;1.23;;
14165;SDS011;7162;52.422;13.754;2023-03-31T09:32:42;3.13;;;1.27;;
14165;SDS011;7162;52.422;13.754;2023-03-31T09:35:13;3.43;;;1.20;;
14165;SDS011;7162;52.422;13.754;2023-03-31T09:37:41;2.80;;;1.70;;
14165;SDS011;7162;52.422;13.754;2023-03-31T09:40:12;4.87;;;1.30;;
14165;SDS011;7162;52.422;13.754;2023-03-31T09:42:43;35.83;;;16.40;;
14165;SDS011;7162;52.422;13.754;2023-03-31T09:45:17;76.17;;;29.83;;
14165;SDS011;7162;52.422;13.754;2023-03-31T09:47:46;69.20;;;29.00;;
14165;SDS011;7162;52.422;13.754;2023-03-31T09:50:13;12.43;;;6.50;;
14165;SDS011;7162;52.422;13.754;2023-03-31T09:52:42;13.90;;;6.60;;
14165;SDS011;7162;52.422;13.754;2023-03-31T09:55:16;12.73;;;5.77;;
14165;SDS011;7162;52.422;13.754;2023-03-31T09:57:46;33.53;;;13.87;;
14165;SDS011;7162;52.422;13.754;2023-03-31T10:00:14;25.40;;;10.50;;
14165;SDS011;7162;52.422;13.754;2023-03-31T10:02:46;21.20;;;9.50;;
14165;SDS011;7162;52.422;13.754;2023-03-31T10:05:25;12.33;;;5.50;;
14165;SDS011;7162;52.422;13.754;2023-03-31T10:10:49;1.83;;;1.10;;
14165;SDS011;7162;52.422;13.754;2023-03-31T10:13:19;6.17;;;1.20;;
14165;SDS011;7162;52.422;13.754;2023-03-31T10:15:50;4.43;;;1.73;;
14165;SDS011;7162;52.422;13.754;2023-03-31T10:18:18;7.27;;;2.90;;
14165;SDS011;7162;52.422;13.754;2023-03-31T10:20:47;1.83;;;1.30;;
14165;SDS011;7162;52.422;13.754;2023-03-31T10:23:16;4.20;;;1.63;;
14165;SDS011;7162;52.422;13.754;2023-03-31T10:25:43;6.70;;;1.20;;
14165;SDS011;7162;52.422;13.754;2023-03-31T10:28:11;2.50;;;1.37;;
14165;SDS011;7162;52.422;13.754;2023-03-31T10:30:45;2.03;;;1.40;;
14165;SDS011;7162;52.422;13.754;2023-03-31T10:33:14;7.20;;;1.43;;
14165;SDS011;7162;52.422;13.754;2023-03-31T10:35:42;2.13;;;1.70;;
14165;SDS011;7162;52.422;13.754;2023-03-31T10:38:11;5.87;;;1.20;;
14165;SDS011;7162;52.422;13.754;2023-03-31T10:40:39;1.33;;;1.23;;
14165;SDS011;7162;52.422;13.754;2023-03-31T10:43:08;2.67;;;1.40;;
14165;SDS011;7162;52.422;13.754;2023-03-31T10:45:46;6.20;;;1.20;;
14165;SDS011;7162;52.422;13.754;2023-03-31T10:48:17;2.07;;;1.33;;
14165;SDS011;7162;52.422;13.754;2023-03-31T10:50:51;3.23;;;1.57;;
14165;SDS011;7162;52.422;13.754;2023-03-31T10:53:20;2.70;;;1.70;;
14165;SDS011;7162;52.422;13.754;2023-03-31T10:55:52;1.33;;;1.23;;
14165;SDS011;7162;52.422;13.754;2023-03-31T10:58:26;3.33;;;1.43;;
14165;SDS011;7162;52.422;13.754;2023-03-31T11:01:02;1.67;;;1.33;;
14165;SDS011;7162;52.422;13.754;2023-03-31T11:03:36;2.50;;;1.43;;
14165;SDS011;7162;52.422;13.754;2023-03-31T11:06:08;2.70;;;1.37;;
14165;SDS011;7162;52.422;13.754;2023-03-31T11:08:41;5.90;;;1.50;;
14165;SDS011;7162;52.422;13.754;2023-03-31T11:11:14;9.90;;;1.50;;
14165;SDS011;7162;52.422;13.754;2023-03-31T11:13:46;2.70;;;1.40;;
14165;SDS011;7162;52.422;13.754;2023-03-31T11:16:17;1.27;;;1.07;;
14165;SDS011;7162;52.422;13.754;2023-03-31T11:21:37;1.63;;;1.07;;
14165;SDS011;7162;52.422;13.754;2023-03-31T11:24:10;3.00;;;1.43;;
14165;SDS011;7162;52.422;13.754;2023-03-31T11:26:43;1.90;;;1.37;;
14165;SDS011;7162;52.422;13.754;2023-03-31T11:29:18;2.17;;;1.50;;
14165;SDS011;7162;52.422;13.754;2023-03-31T11:31:51;3.40;;;1.60;;
14165;SDS011;7162;52.422;13.754;2023-03-31T11:37:11;2.70;;;1.23;;
14165;SDS011;7162;52.422;13.754;2023-03-31T11:39:45;3.93;;;1.30;;
14165;SDS011;7162;52.422;13.754;2023-03-31T11:42:13;4.30;;;1.40;;
14165;SDS011;7162;52.422;13.754;2023-03-31T11:44:43;4.50;;;1.30;;
14165;SDS011;7162;52.422;13.754;2023-03-31T11:47:13;1.90;;;1.50;;
14165;SDS011;7162;52.422;13.754;2023-03-31T11:49:44;2.87;;;1.13;;
14165;SDS011;7162;52.422;13.754;2023-03-31T11:52:13;4.33;;;2.20;;
14165;SDS011;7162;52.422;13.754;2023-03-31T11:54:41;1.37;;;1.27;;
14165;SDS011;7162;52.422;13.754;2023-03-31T11:57:12;2.77;;;1.50;;
14165;SDS011;7162;52.422;13.754;2023-03-31T11:59:42;2.50;;;1.40;;
14165;SDS011;7162;52.422;13.754;2023-03-31T12:02:20;2.33;;;1.40;;
14165;SDS011;7162;52.422;13.754;2023-03-31T12:04:50;3.53;;;1.40;;
14165;SDS011;7162;52.422;13.754;2023-03-31T12:07:20;9.67;;;2.90;;
14165;SDS011;7162;52.422;13.754;2023-03-31T12:09:53;2.03;;;1.50;;
14165;SDS011;7162;52.422;13.754;2023-03-31T12:12:29;6.07;;;1.93;;
14165;SDS011;7162;52.422;13.754;2023-03-31T12:14:59;4.17;;;1.70;;
14165;SDS011;7162;52.422;13.754;2023-03-31T12:17:30;3.20;;;1.53;;
14165;SDS011;7162;52.422;13.754;2023-03-31T12:19:58;6.87;;;1.90;;
14165;SDS011;7162;52.422;13.754;2023-03-31T12:22:26;8.27;;;1.40;;
14165;SDS011;7162;52.422;13.754;2023-03-31T12:24:54;2.23;;;1.33;;
14165;SDS011;7162;52.422;13.754;2023-03-31T12:27:23;4.00;;;1.70;;
14165;SDS011;7162;52.422;13.754;2023-03-31T12:29:53;4.30;;;1.87;;
14165;SDS011;7162;52.422;13.754;2023-03-31T12:32:21;3.57;;;1.47;;
14165;SDS011;7162;52.422;13.754;2023-03-31T12:34:53;5.97;;;1.50;;
14165;SDS011;7162;52.422;13.754;2023-03-31T12:37:27;1.50;;;1.37;;
14165;SDS011;7162;52.422;13.754;2023-03-31T12:39:59;2.40;;;1.20;;
14165;SDS011;7162;52.422;13.754;2023-03-31T12:42:50;1.27;;;1.10;;
14165;SDS011;7162;52.422;13.754;2023-03-31T12:45:23;2.70;;;1.40;;
14165;SDS011;7162;52.422;13.754;2023-03-31T12:47:58;3.50;;;1.60;;
14165;SDS011;7162;52.422;13.754;2023-03-31T12:50:33;2.80;;;1.60;;
14165;SDS011;7162;52.422;13.754;2023-03-31T12:53:08;8.83;;;1.87;;
14165;SDS011;7162;52.422;13.754;2023-03-31T12:55:39;6.07;;;1.50;;
14165;SDS011;7162;52.422;13.754;2023-03-31T13:01:03;2.13;;;1.60;;
14165;SDS011;7162;52.422;13.754;2023-03-31T13:03:41;2.00;;;1.50;;
14165;SDS011;7162;52.422;13.754;2023-03-31T13:06:10;2.30;;;1.57;;
14165;SDS011;7162;52.422;13.754;2023-03-31T13:08:48;4.50;;;1.70;;
14165;SDS011;7162;52.422;13.754;2023-03-31T13:11:15;4.90;;;1.40;;
14165;SDS011;7162;52.422;13.754;2023-03-31T13:13:43;7.00;;;1.77;;
14165;SDS011;7162;52.422;13.754;2023-03-31T13:16:12;2.63;;;1.43;;
14165;SDS011;7162;52.422;13.754;2023-03-31T13:18:48;4.20;;;2.07;;
14165;SDS011;7162;52.422;13.754;2023-03-31T13:21:17;2.17;;;1.40;;
14165;SDS011;7162;52.422;13.754;2023-03-31T13:23:44;3.00;;;1.70;;
14165;SDS011;7162;52.422;13.754;2023-03-31T13:34:30;3.30;;;1.93;;
14165;SDS011;7162;52.422;13.754;2023-03-31T13:37:07;4.50;;;1.37;;
14165;SDS011;7162;52.422;13.754;2023-03-31T13:39:46;1.40;;;1.10;;
14165;SDS011;7162;52.422;13.754;2023-03-31T13:42:29;4.43;;;1.23;;
14165;SDS011;7162;52.422;13.754;2023-03-31T13:45:04;1.90;;;1.03;;
14165;SDS011;7162;52.422;13.754;2023-03-31T13:47:38;3.20;;;1.23;;
14165;SDS011;7162;52.422;13.754;2023-03-31T13:50:14;0.83;;;0.80;;
14165;SDS011;7162;52.422;13.754;2023-03-31T13:52:45;2.43;;;1.07;;
14165;SDS011;7162;52.422;13.754;2023-03-31T13:55:27;1.80;;;1.40;;
14165;SDS011;7162;52.422;13.754;2023-03-31T13:58:13;1.93;;;1.47;;
14165;SDS011;7162;52.422;13.754;2023-03-31T14:00:46;2.27;;;1.10;;
14165;SDS011;7162;52.422;13.754;2023-03-31T14:03:18;1.20;;;1.10;;
14165;SDS011;7162;52.422;13.754;2023-03-31T14:05:49;1.87;;;1.03;;
14165;SDS011;7162;52.422;13.754;2023-03-31T14:08:25;2.60;;;1.00;;
14165;SDS011;7162;52.422;13.754;2023-03-31T14:10:55;1.33;;;1.23;;
14165;SDS011;7162;52.422;13.754;2023-03-31T14:13:40;1.30;;;0.90;;
14165;SDS011;7162;52.422;13.754;2023-03-31T14:16:07;0.80;;;0.80;;
14165;SDS011;7162;52.422;13.754;2023-03-31T14:18:39;1.37;;;1.20;;
14165;SDS011;7162;52.422;13.754;2023-03-31T14:21:12;1.90;;;0.80;;
14165;SDS011;7162;52.422;13.754;2023-03-31T14:23:47;1.80;;;1.30;;
14165;SDS011;7162;52.422;13.754;2023-03-31T14:26:18;2.13;;;0.90;;
14165;SDS011;7162;52.422;13.754;2023-03-31T14:28:49;1.50;;;0.90;;
14165;SDS011;7162;52.422;13.754;2023-03-31T14:31:22;1.07;;;0.97;;
14165;SDS011;7162;52.422;13.754;2023-03-31T14:33:58;0.87;;;0.83;;
14165;SDS011;7162;52.422;13.754;2023-03-31T14:36:32;2.70;;;0.83;;
14165;SDS011;7162;52.422;13.754;2023-03-31T14:39:05;1.10;;;0.90;;
14165;SDS011;7162;52.422;13.754;2023-03-31T14:41:36;1.97;;;0.77;;
14165;SDS011;7162;52.422;13.754;2023-03-31T14:44:05;1.10;;;1.00;;
14165;SDS011;7162;52.422;13.754;2023-03-31T14:46:35;4.20;;;1.20;;
14165;SDS011;7162;52.422;13.754;2023-03-31T14:49:05;1.43;;;1.07;;
14165;SDS011;7162;52.422;13.754;2023-03-31T14:51:32;0.93;;;0.93;;
14165;SDS011;7162;52.422;13.754;2023-03-31T14:54:00;1.03;;;0.90;;
14165;SDS011;7162;52.422;13.754;2023-03-31T14:56:32;0.73;;;0.73;;
14165;SDS011;7162;52.422;13.754;2023-03-31T14:59:01;2.90;;;0.87;;
14165;SDS011;7162;52.422;13.754;2023-03-31T15:01:30;2.73;;;1.00;;
14165;SDS011;7162;52.422;13.754;2023-03-31T15:04:00;1.90;;;0.90;;
14165;SDS011;7162;52.422;13.754;2023-03-31T15:06:27;3.07;;;1.00;;
14165;SDS011;7162;52.422;13.754;2023-03-31T15:08:59;1.30;;;1.00;;
14165;SDS011;7162;52.422;13.754;2023-03-31T15:11:28;2.40;;;0.90;;
14165;SDS011;7162;52.422;13.754;2023-03-31T15:13:57;2.43;;;1.30;;
14165;SDS011;7162;52.422;13.754;2023-03-31T15:16:29;1.13;;;0.90;;
14165;SDS011;7162;52.422;13.754;2023-03-31T15:18:58;0.80;;;0.80;;
14165;SDS011;7162;52.422;13.754;2023-03-31T15:21:26;1.10;;;0.90;;
14165;SDS011;7162;52.422;13.754;2023-03-31T15:23:54;2.67;;;1.00;;
14165;SDS011;7162;52.422;13.754;2023-03-31T15:26:25;2.60;;;0.90;;
14165;SDS011;7162;52.422;13.754;2023-03-31T15:28:55;5.33;;;1.23;;